createdAt,value
2019-02-14T00:01:47.849Z,99.90
2019-02-14T00:06:41.839Z,99.90
2019-02-14T00:11:39.105Z,99.90
2019-02-14T00:16:33.441Z,99.90
2019-02-14T00:21:27.782Z,99.90
2019-02-14T00:26:22.136Z,99.90
2019-02-14T00:31:17.876Z,99.90
2019-02-14T00:36:12.276Z,99.90
2019-02-14T00:41:10.364Z,99.90
2019-02-14T00:46:07.500Z,99.90
2019-02-14T00:51:06.654Z,99.90
2019-02-14T00:56:00.621Z,99.90
2019-02-14T01:00:57.394Z,99.90
2019-02-14T01:05:52.103Z,99.90
2019-02-14T01:10:47.588Z,99.90
2019-02-14T01:15:42.566Z,99.90
2019-02-14T01:20:40.529Z,99.90
2019-02-14T01:25:35.349Z,99.90
2019-02-14T01:30:29.673Z,99.90
2019-02-14T01:35:24.981Z,99.90
2019-02-14T01:40:24.010Z,99.90
2019-02-14T01:45:18.274Z,99.90
2019-02-14T01:50:12.894Z,99.90
2019-02-14T01:55:07.732Z,99.90
2019-02-14T02:00:11.002Z,99.90
2019-02-14T02:05:06.976Z,99.90
2019-02-14T02:10:05.215Z,99.90
2019-02-14T02:15:01.155Z,99.90
2019-02-14T02:19:55.124Z,99.90
2019-02-14T02:24:49.194Z,99.90
2019-02-14T02:29:44.727Z,99.90
2019-02-14T02:34:40.124Z,99.90
2019-02-14T02:39:41.272Z,99.90
2019-02-14T02:49:24.121Z,99.90
2019-02-14T02:54:17.986Z,99.90
2019-02-14T02:59:11.849Z,99.90
2019-02-14T03:04:05.908Z,99.90
2019-02-14T03:09:01.671Z,99.90
2019-02-14T03:13:55.561Z,99.90
2019-02-14T03:18:50.038Z,99.90
2019-02-14T03:23:44.087Z,99.90
2019-02-14T03:28:38.379Z,99.90
2019-02-14T03:33:41.738Z,99.90
2019-02-14T03:38:35.833Z,99.90
2019-02-14T03:43:30.581Z,99.90
2019-02-14T03:48:25.050Z,99.90
2019-02-14T03:53:19.346Z,99.90
2019-02-14T03:58:13.866Z,99.90
2019-02-14T04:03:11.366Z,99.90
2019-02-14T04:08:05.526Z,99.90
2019-02-14T04:12:59.720Z,99.90
2019-02-14T04:17:55.108Z,99.90
2019-02-14T04:22:51.388Z,99.90
2019-02-14T04:27:45.254Z,99.90
2019-02-14T04:32:41.130Z,99.90
2019-02-14T04:37:36.592Z,99.90
2019-02-14T04:42:30.634Z,99.90
2019-02-14T04:47:28.071Z,99.90
2019-02-14T04:52:33.679Z,99.90
2019-02-14T04:57:29.730Z,99.90
2019-02-14T05:02:23.794Z,99.90
2019-02-14T05:07:18.312Z,99.90
2019-02-14T05:12:12.501Z,99.90
2019-02-14T05:17:07.104Z,99.90
2019-02-14T05:22:03.520Z,99.90
2019-02-14T05:26:57.250Z,99.90
2019-02-14T05:31:51.434Z,99.90
2019-02-14T05:36:52.719Z,99.90
2019-02-14T05:41:41.139Z,99.90
2019-02-14T05:46:37.732Z,99.90
2019-02-14T05:51:32.263Z,99.90
2019-02-14T05:56:26.220Z,99.90
2019-02-14T06:01:20.694Z,99.90
2019-02-14T06:06:16.512Z,99.90
2019-02-14T06:11:10.554Z,99.90
2019-02-14T06:16:09.133Z,99.90
2019-02-14T06:21:08.042Z,99.90
2019-02-14T06:26:01.872Z,99.90
2019-02-14T06:30:57.478Z,99.90
2019-02-14T06:35:51.442Z,99.90
2019-02-14T06:40:46.188Z,99.90
2019-02-14T06:45:42.527Z,99.90
2019-02-14T06:50:37.949Z,99.90
2019-02-14T06:55:31.956Z,99.90
2019-02-14T07:00:27.982Z,99.90
2019-02-14T07:05:23.177Z,99.90
2019-02-14T07:10:20.888Z,99.90
2019-02-14T07:15:15.408Z,99.90
2019-02-14T07:20:17.015Z,99.90
2019-02-14T07:25:15.765Z,99.90
2019-02-14T07:30:14.369Z,99.90
2019-02-14T07:35:10.970Z,99.90
2019-02-14T07:40:13.870Z,99.90
2019-02-14T07:45:05.301Z,99.90
2019-02-14T07:50:00.643Z,99.90
2019-02-14T07:54:59.711Z,99.90
2019-02-14T08:00:22.453Z,99.90
2019-02-14T08:05:16.310Z,99.90
2019-02-14T08:10:21.003Z,99.90
2019-02-14T08:15:20.080Z,99.90
2019-02-14T08:20:21.521Z,99.90
2019-02-14T08:25:19.046Z,99.90
2019-02-14T08:30:21.487Z,99.40
2019-02-14T08:35:19.302Z,99.10
2019-02-14T08:40:29.319Z,99.40
2019-02-14T08:45:25.592Z,99.10
2019-02-14T08:50:20.451Z,99.40
2019-02-14T08:55:19.719Z,99.20
2019-02-14T09:00:16.519Z,99.10
2019-02-14T09:05:13.905Z,98.00
2019-02-14T09:10:14.137Z,96.10
2019-02-14T09:15:15.024Z,95.70
2019-02-14T09:20:13.175Z,93.60
2019-02-14T09:25:10.035Z,86.70
2019-02-14T09:30:05.148Z,79.10
2019-02-14T09:35:03.752Z,78.40
2019-02-14T09:40:00.042Z,78.10
2019-02-14T09:44:54.983Z,75.80
2019-02-14T09:49:52.053Z,70.20
2019-02-14T09:54:46.881Z,59.00
2019-02-14T09:59:43.735Z,53.90
2019-02-14T10:04:40.520Z,51.90
2019-02-14T10:09:34.478Z,51.50
2019-02-14T10:14:31.074Z,51.20
2019-02-14T10:19:30.179Z,49.20
2019-02-14T10:24:31.885Z,49.80
2019-02-14T10:29:22.006Z,48.20
2019-02-14T10:34:21.156Z,47.80
2019-02-14T10:39:17.291Z,48.30
2019-02-14T10:44:15.403Z,47.70
2019-02-14T10:49:17.273Z,48.00
2019-02-14T10:54:12.284Z,47.70
2019-02-14T10:59:09.685Z,46.20
2019-02-14T11:04:04.068Z,45.80
2019-02-14T11:09:03.682Z,45.70
2019-02-14T11:13:58.120Z,46.40
2019-02-14T11:18:53.233Z,46.20
2019-02-14T11:23:47.279Z,43.90
2019-02-14T11:28:46.425Z,45.40
2019-02-14T11:33:47.886Z,44.20
2019-02-14T11:38:58.940Z,45.30
2019-02-14T11:43:55.540Z,45.20
2019-02-14T11:48:54.129Z,44.60
2019-02-14T11:53:49.522Z,45.80
2019-02-14T11:58:44.569Z,46.30
2019-02-14T12:03:47.257Z,50.90
2019-02-14T12:08:48.812Z,57.30
2019-02-14T12:13:32.746Z,66.10
2019-02-14T12:23:20.589Z,78.60
2019-02-14T12:28:15.247Z,84.40
2019-02-14T12:33:11.727Z,89.20
2019-02-14T12:38:08.545Z,91.60
2019-02-14T12:43:10.302Z,91.90
2019-02-14T12:48:04.375Z,92.80
2019-02-14T12:52:59.157Z,93.50
2019-02-14T12:57:55.236Z,95.20
2019-02-14T13:03:00.253Z,94.80
2019-02-14T13:07:54.254Z,95.30
2019-02-14T13:12:49.831Z,94.60
2019-02-14T13:17:46.464Z,96.00
2019-02-14T13:22:40.523Z,96.40
2019-02-14T13:27:35.942Z,96.40
2019-02-14T13:32:31.022Z,96.10
2019-02-14T13:37:25.126Z,96.10
2019-02-14T13:42:21.238Z,97.10
2019-02-14T13:47:15.763Z,96.70
2019-02-14T13:52:09.833Z,96.80
2019-02-14T13:57:08.706Z,97.10
2019-02-14T14:02:03.008Z,97.60
2019-02-14T14:06:57.406Z,97.60
2019-02-14T14:11:54.496Z,97.80
2019-02-14T14:16:48.390Z,98.60
2019-02-14T14:21:42.767Z,98.80
2019-02-14T14:26:40.800Z,99.00
2019-02-14T14:31:34.916Z,99.00
2019-02-14T14:36:29.008Z,99.00
2019-02-14T14:41:23.213Z,99.50
2019-02-14T14:46:21.703Z,99.90
2019-02-14T14:51:21.754Z,99.90
2019-02-14T14:56:17.501Z,99.90
2019-02-14T15:01:12.007Z,99.90
2019-02-14T15:06:14.795Z,99.90
2019-02-14T15:11:13.087Z,99.90
2019-02-14T15:16:08.202Z,99.90
2019-02-14T15:21:09.773Z,99.90
2019-02-14T15:26:09.845Z,99.90
2019-02-14T15:31:06.320Z,99.90
2019-02-14T15:36:07.930Z,99.90
2019-02-14T15:41:07.186Z,99.90
2019-02-14T15:46:06.097Z,99.90
2019-02-14T15:51:10.404Z,99.90
2019-02-14T15:56:07.832Z,99.90
2019-02-14T16:01:06.102Z,99.90
2019-02-14T16:06:06.206Z,99.90
2019-02-14T16:10:57.709Z,99.90
2019-02-14T16:15:53.727Z,99.90
2019-02-14T16:20:47.672Z,99.90
2019-02-14T16:25:44.128Z,99.90
2019-02-14T16:30:39.952Z,99.90
2019-02-14T16:35:43.506Z,99.90
2019-02-14T16:40:38.797Z,99.90
2019-02-14T16:45:32.792Z,99.90
2019-02-14T16:50:32.919Z,99.90
2019-02-14T16:55:32.108Z,99.90
2019-02-14T17:00:33.704Z,99.90
2019-02-14T17:05:36.959Z,99.90
2019-02-14T17:10:37.252Z,99.90
2019-02-14T17:15:36.482Z,99.90
2019-02-14T17:20:45.391Z,99.90
2019-02-14T17:25:43.627Z,99.90
2019-02-14T17:30:41.415Z,99.90
2019-02-14T17:35:45.727Z,99.90
2019-02-14T17:40:46.119Z,99.90
2019-02-14T17:45:46.121Z,99.90
2019-02-14T17:50:41.454Z,99.90
2019-02-14T17:55:35.898Z,99.90
2019-02-14T18:00:33.507Z,99.90
2019-02-14T18:05:31.607Z,99.90
2019-02-14T18:10:25.670Z,99.90
2019-02-14T18:15:21.675Z,99.90
2019-02-14T18:20:15.749Z,99.90
2019-02-14T18:25:12.165Z,99.90
2019-02-14T18:30:09.822Z,99.90
2019-02-14T18:35:08.126Z,99.90
2019-02-14T18:40:08.931Z,99.90
2019-02-14T18:45:09.439Z,99.90
2019-02-14T18:50:04.593Z,99.90
2019-02-14T18:55:00.600Z,99.90
2019-02-14T18:59:58.697Z,99.90
2019-02-14T19:04:52.676Z,99.90
2019-02-14T19:09:50.988Z,99.90
2019-02-14T19:14:45.472Z,99.90
2019-02-14T19:19:39.925Z,99.90
2019-02-14T19:24:34.041Z,99.90
2019-02-14T19:29:29.707Z,99.90
2019-02-14T19:34:23.958Z,99.90
2019-02-14T19:39:19.735Z,99.90
2019-02-14T19:44:16.288Z,99.90
2019-02-14T19:49:11.272Z,99.90
2019-02-14T19:54:06.941Z,99.90
2019-02-14T19:59:02.052Z,99.90
2019-02-14T20:03:56.420Z,99.90
2019-02-14T20:08:55.841Z,99.90
2019-02-14T20:13:51.613Z,99.90
2019-02-14T20:18:45.670Z,99.90
2019-02-14T20:23:43.608Z,99.90
2019-02-14T20:28:37.651Z,99.90
2019-02-14T20:33:31.773Z,99.90
2019-02-14T20:38:27.421Z,99.90
2019-02-14T20:43:21.706Z,99.90
2019-02-14T20:48:15.831Z,99.90
2019-02-14T20:53:11.001Z,99.90
2019-02-14T20:58:06.037Z,99.90
2019-02-14T21:03:00.128Z,99.90
2019-02-14T21:07:54.052Z,99.90
2019-02-14T21:12:50.793Z,99.90
2019-02-14T21:17:45.414Z,99.90
2019-02-14T21:22:43.668Z,99.90
2019-02-14T21:27:39.370Z,99.90
2019-02-14T21:32:33.431Z,99.90
2019-02-14T21:37:27.731Z,99.90
2019-02-14T21:42:29.063Z,99.90
2019-02-14T21:47:22.151Z,99.90
2019-02-14T21:52:18.066Z,99.90
2019-02-14T21:57:16.064Z,99.90
2019-02-14T22:02:12.159Z,99.90
2019-02-14T22:07:08.049Z,99.90
2019-02-14T22:12:03.558Z,99.90
2019-02-14T22:16:57.894Z,99.90
2019-02-14T22:21:52.475Z,99.90
2019-02-14T22:26:46.578Z,99.90
2019-02-14T22:31:44.409Z,99.90
2019-02-14T22:36:51.246Z,99.90
2019-02-14T22:41:45.158Z,99.90
2019-02-14T22:46:40.691Z,99.90
2019-02-14T22:51:35.935Z,99.90
2019-02-14T22:56:34.384Z,99.90
2019-02-14T23:01:32.350Z,99.90
2019-02-14T23:06:30.151Z,99.90
2019-02-14T23:11:25.749Z,99.90
2019-02-14T23:16:20.646Z,99.90
2019-02-14T23:21:14.893Z,99.90
2019-02-14T23:26:10.410Z,99.90
2019-02-14T23:31:07.691Z,99.90
2019-02-14T23:36:09.238Z,99.90
2019-02-14T23:41:07.162Z,99.90
2019-02-14T23:46:08.529Z,99.90
2019-02-14T23:51:04.453Z,99.90
2019-02-14T23:56:01.821Z,99.90
